sensor_id;sensor_type;location;lat;lon;timestamp;pressure;altitude;pressure_sealevel;temperature;humidity
71105;BME280;58760;48.716;8.962;2023-05-03T00:01:36;97238.75;;;9.39;80.15
71105;BME280;58760;48.716;8.962;2023-05-03T00:04:02;97241.09;;;9.42;80.40
71105;BME280;58760;48.716;8.962;2023-05-03T00:06:30;97244.88;;;9.39;80.74
71105;BME280;58760;48.716;8.962;2023-05-03T00:08:56;97238.59;;;9.40;80.70
71105;BME280;58760;48.716;8.962;2023-05-03T00:11:21;97241.84;;;9.34;81.11
71105;BME280;58760;48.716;8.962;2023-05-03T00:13:46;97249.06;;;9.42;81.44
71105;BME280;58760;48.716;8.962;2023-05-03T00:16:12;97242.25;;;9.39;81.34
71105;BME280;58760;48.716;8.962;2023-05-03T00:18:37;97249.88;;;9.42;81.34
71105;BME280;58760;48.716;8.962;2023-05-03T00:21:03;97246.28;;;9.34;81.85
71105;BME280;58760;48.716;8.962;2023-05-03T00:23:28;97246.84;;;9.37;81.82
71105;BME280;58760;48.716;8.962;2023-05-03T00:25:55;97242.25;;;9.30;82.24
71105;BME280;58760;48.716;8.962;2023-05-03T00:28:22;97248.66;;;9.37;81.88
71105;BME280;58760;48.716;8.962;2023-05-03T00:30:47;97242.72;;;9.25;82.34
71105;BME280;58760;48.716;8.962;2023-05-03T00:33:13;97244.97;;;9.20;82.56
71105;BME280;58760;48.716;8.962;2023-05-03T00:35:39;97245.25;;;9.17;82.67
71105;BME280;58760;48.716;8.962;2023-05-03T00:38:05;97240.25;;;9.14;82.77
71105;BME280;58760;48.716;8.962;2023-05-03T00:40:30;97234.59;;;9.09;82.94
71105;BME280;58760;48.716;8.962;2023-05-03T00:42:56;97241.44;;;9.02;83.14
71105;BME280;58760;48.716;8.962;2023-05-03T00:45:21;97232.56;;;8.93;83.83
71105;BME280;58760;48.716;8.962;2023-05-03T00:47:47;97232.03;;;8.90;83.79
71105;BME280;58760;48.716;8.962;2023-05-03T00:50:13;97226.44;;;8.93;83.83
71105;BME280;58760;48.716;8.962;2023-05-03T00:52:39;97225.88;;;8.89;84.19
71105;BME280;58760;48.716;8.962;2023-05-03T00:55:05;97225.09;;;8.79;84.19
71105;BME280;58760;48.716;8.962;2023-05-03T00:57:31;97214.13;;;8.74;84.56
71105;BME280;58760;48.716;8.962;2023-05-03T00:59:57;97227.34;;;8.74;84.78
71105;BME280;58760;48.716;8.962;2023-05-03T01:02:23;97220.53;;;8.62;85.09
71105;BME280;58760;48.716;8.962;2023-05-03T01:04:49;97226.97;;;8.60;85.57
71105;BME280;58760;48.716;8.962;2023-05-03T01:12:55;97230.75;;;8.48;85.77
71105;BME280;58760;48.716;8.962;2023-05-03T01:15:36;97227.09;;;8.49;86.13
71105;BME280;58760;48.716;8.962;2023-05-03T01:18:13;97221.31;;;8.35;86.65
71105;BME280;58760;48.716;8.962;2023-05-03T01:20:43;97212.97;;;8.30;87.06
71105;BME280;58760;48.716;8.962;2023-05-03T01:23:39;97220.59;;;8.33;87.10
71105;BME280;58760;48.716;8.962;2023-05-03T01:26:21;97217.56;;;8.28;87.26
71105;BME280;58760;48.716;8.962;2023-05-03T01:28:47;97211.28;;;8.20;87.54
71105;BME280;58760;48.716;8.962;2023-05-03T01:31:18;97219.66;;;8.15;87.57
71105;BME280;58760;48.716;8.962;2023-05-03T01:33:57;97219.94;;;8.12;87.80
71105;BME280;58760;48.716;8.962;2023-05-03T01:36:29;97215.44;;;8.03;88.05
71105;BME280;58760;48.716;8.962;2023-05-03T01:38:58;97223.41;;;8.13;88.19
71105;BME280;58760;48.716;8.962;2023-05-03T01:41:25;97211.84;;;8.04;88.20
71105;BME280;58760;48.716;8.962;2023-05-03T01:43:53;97217.41;;;8.01;88.53
71105;BME280;58760;48.716;8.962;2023-05-03T01:46:19;97209.09;;;7.96;88.39
71105;BME280;58760;48.716;8.962;2023-05-03T01:48:46;97201.56;;;7.92;88.97
71105;BME280;58760;48.716;8.962;2023-05-03T01:51:11;97210.34;;;7.82;89.52
71105;BME280;58760;48.716;8.962;2023-05-03T01:53:37;97212.69;;;7.85;89.78
71105;BME280;58760;48.716;8.962;2023-05-03T01:56:02;97209.91;;;7.87;89.46
71105;BME280;58760;48.716;8.962;2023-05-03T01:58:28;97202.97;;;7.86;89.25
71105;BME280;58760;48.716;8.962;2023-05-03T02:00:53;97213.66;;;7.84;89.60
71105;BME280;58760;48.716;8.962;2023-05-03T02:03:19;97208.81;;;7.80;89.95
71105;BME280;58760;48.716;8.962;2023-05-03T02:05:45;97216.31;;;7.75;90.02
71105;BME280;58760;48.716;8.962;2023-05-03T02:08:10;97207.69;;;7.73;90.20
71105;BME280;58760;48.716;8.962;2023-05-03T02:10:35;97206.00;;;7.72;90.44
71105;BME280;58760;48.716;8.962;2023-05-03T02:13:01;97207.69;;;7.63;90.53
71105;BME280;58760;48.716;8.962;2023-05-03T02:15:26;97206.97;;;7.61;90.86
71105;BME280;58760;48.716;8.962;2023-05-03T02:17:51;97215.31;;;7.57;91.42
71105;BME280;58760;48.716;8.962;2023-05-03T02:20:18;97216.16;;;7.48;91.89
71105;BME280;58760;48.716;8.962;2023-05-03T02:22:43;97210.16;;;7.46;92.41
71105;BME280;58760;48.716;8.962;2023-05-03T02:25:09;97209.75;;;7.41;92.33
71105;BME280;58760;48.716;8.962;2023-05-03T02:27:34;97211.13;;;7.45;92.84
71105;BME280;58760;48.716;8.962;2023-05-03T02:30:00;97213.22;;;7.41;92.14
71105;BME280;58760;48.716;8.962;2023-05-03T02:32:25;97206.38;;;7.38;91.93
71105;BME280;58760;48.716;8.962;2023-05-03T02:34:51;97200.69;;;7.33;92.62
71105;BME280;58760;48.716;8.962;2023-05-03T02:37:16;97205.44;;;7.40;92.34
71105;BME280;58760;48.716;8.962;2023-05-03T02:39:41;97202.22;;;7.36;92.34
71105;BME280;58760;48.716;8.962;2023-05-03T02:42:07;97200.13;;;7.30;92.45
71105;BME280;58760;48.716;8.962;2023-05-03T02:44:33;97202.09;;;7.38;92.53
71105;BME280;58760;48.716;8.962;2023-05-03T02:46:59;97194.28;;;7.26;92.33
71105;BME280;58760;48.716;8.962;2023-05-03T02:49:24;97195.13;;;7.27;92.47
71105;BME280;58760;48.716;8.962;2023-05-03T02:51:50;97197.88;;;7.25;92.92
71105;BME280;58760;48.716;8.962;2023-05-03T02:54:17;97201.91;;;7.20;92.84
71105;BME280;58760;48.716;8.962;2023-05-03T02:56:42;97195.78;;;7.10;93.34
71105;BME280;58760;48.716;8.962;2023-05-03T02:59:07;97204.91;;;7.06;93.76
71105;BME280;58760;48.716;8.962;2023-05-03T03:01:33;97212.03;;;7.05;93.69
71105;BME280;58760;48.716;8.962;2023-05-03T03:03:58;97203.41;;;7.03;93.80
71105;BME280;58760;48.716;8.962;2023-05-03T03:06:24;97197.97;;;6.95;94.08
71105;BME280;58760;48.716;8.962;2023-05-03T03:08:49;97201.00;;;6.91;94.35
71105;BME280;58760;48.716;8.962;2023-05-03T03:11:15;97208.50;;;6.86;94.80
71105;BME280;58760;48.716;8.962;2023-05-03T03:13:40;97205.97;;;6.84;94.98
71105;BME280;58760;48.716;8.962;2023-05-03T03:16:06;97205.28;;;6.82;95.24
71105;BME280;58760;48.716;8.962;2023-05-03T03:18:32;97209.84;;;6.80;95.19
71105;BME280;58760;48.716;8.962;2023-05-03T03:20:59;97212.19;;;6.83;95.31
71105;BME280;58760;48.716;8.962;2023-05-03T03:23:25;97210.41;;;6.83;94.93
71105;BME280;58760;48.716;8.962;2023-05-03T03:25:50;97202.19;;;6.77;95.21
71105;BME280;58760;48.716;8.962;2023-05-03T03:28:16;97209.69;;;6.72;95.53
71105;BME280;58760;48.716;8.962;2023-05-03T03:30:41;97202.03;;;6.69;95.95
71105;BME280;58760;48.716;8.962;2023-05-03T03:33:07;97201.03;;;6.70;96.32
71105;BME280;58760;48.716;8.962;2023-05-03T03:35:32;97207.63;;;6.75;96.49
71105;BME280;58760;48.716;8.962;2023-05-03T03:37:57;97210.94;;;6.77;95.88
71105;BME280;58760;48.716;8.962;2023-05-03T03:40:23;97208.47;;;6.76;95.53
71105;BME280;58760;48.716;8.962;2023-05-03T03:42:48;97210.63;;;6.71;95.53
71105;BME280;58760;48.716;8.962;2023-05-03T03:45:14;97208.16;;;6.69;95.39
71105;BME280;58760;48.716;8.962;2023-05-03T03:47:39;97209.69;;;6.72;95.62
71105;BME280;58760;48.716;8.962;2023-05-03T03:50:05;97215.75;;;6.63;95.69
71105;BME280;58760;48.716;8.962;2023-05-03T03:52:31;97217.13;;;6.67;96.07
71105;BME280;58760;48.716;8.962;2023-05-03T03:54:56;97225.88;;;6.67;95.67
71105;BME280;58760;48.716;8.962;2023-05-03T03:57:22;97223.03;;;6.80;96.04
71105;BME280;58760;48.716;8.962;2023-05-03T03:59:49;97222.09;;;6.91;95.64
71105;BME280;58760;48.716;8.962;2023-05-03T04:02:15;97222.84;;;7.02;95.18
71105;BME280;58760;48.716;8.962;2023-05-03T04:04:40;97225.63;;;7.10;94.69
71105;BME280;58760;48.716;8.962;2023-05-03T04:07:07;97218.16;;;7.15;94.91
71105;BME280;58760;48.716;8.962;2023-05-03T04:09:33;97224.13;;;7.17;94.45
71105;BME280;58760;48.716;8.962;2023-05-03T04:11:58;97220.97;;;7.23;94.24
71105;BME280;58760;48.716;8.962;2023-05-03T04:14:23;97234.84;;;7.25;94.20
71105;BME280;58760;48.716;8.962;2023-05-03T04:16:49;97243.47;;;7.27;94.06
71105;BME280;58760;48.716;8.962;2023-05-03T04:19:15;97241.81;;;7.26;94.45
71105;BME280;58760;48.716;8.962;2023-05-03T04:21:42;97236.97;;;7.31;94.09
71105;BME280;58760;48.716;8.962;2023-05-03T04:24:08;97241.13;;;7.34;93.74
71105;BME280;58760;48.716;8.962;2023-05-03T04:26:33;97239.34;;;7.34;93.73
71105;BME280;58760;48.716;8.962;2023-05-03T04:28:59;97242.66;;;7.36;93.56
71105;BME280;58760;48.716;8.962;2023-05-03T04:31:24;97238.25;;;7.47;92.95
71105;BME280;58760;48.716;8.962;2023-05-03T04:33:51;97249.19;;;7.42;92.93
71105;BME280;58760;48.716;8.962;2023-05-03T04:36:19;97241.84;;;7.46;92.71
71105;BME280;58760;48.716;8.962;2023-05-03T04:38:46;97239.34;;;7.44;92.70
71105;BME280;58760;48.716;8.962;2023-05-03T04:41:12;97241.84;;;7.46;92.62
71105;BME280;58760;48.716;8.962;2023-05-03T04:43:38;97241.28;;;7.52;91.83
71105;BME280;58760;48.716;8.962;2023-05-03T04:46:03;97247.00;;;7.47;92.17
71105;BME280;58760;48.716;8.962;2023-05-03T04:48:29;97239.91;;;7.48;92.29
71105;BME280;58760;48.716;8.962;2023-05-03T04:50:54;97241.75;;;7.57;91.98
71105;BME280;58760;48.716;8.962;2023-05-03T04:53:20;97251.59;;;7.55;91.81
71105;BME280;58760;48.716;8.962;2023-05-03T04:55:45;97251.06;;;7.61;91.86
71105;BME280;58760;48.716;8.962;2023-05-03T04:58:11;97252.16;;;7.68;91.69
71105;BME280;58760;48.716;8.962;2023-05-03T05:00:37;97252.88;;;7.70;91.42
71105;BME280;58760;48.716;8.962;2023-05-03T05:03:02;97248.84;;;7.85;90.28
71105;BME280;58760;48.716;8.962;2023-05-03T05:05:27;97254.13;;;7.85;89.35
71105;BME280;58760;48.716;8.962;2023-05-03T05:07:53;97248.56;;;7.88;90.14
71105;BME280;58760;48.716;8.962;2023-05-03T05:10:18;97255.25;;;7.92;89.78
71105;BME280;58760;48.716;8.962;2023-05-03T05:12:44;97260.66;;;8.00;89.49
71105;BME280;58760;48.716;8.962;2023-05-03T05:15:10;97257.91;;;8.11;89.31
71105;BME280;58760;48.716;8.962;2023-05-03T05:17:35;97256.66;;;8.15;89.47
71105;BME280;58760;48.716;8.962;2023-05-03T05:20:00;97260.41;;;8.22;87.38
71105;BME280;58760;48.716;8.962;2023-05-03T05:22:26;97262.53;;;8.28;87.46
71105;BME280;58760;48.716;8.962;2023-05-03T05:24:51;97259.41;;;8.23;87.89
71105;BME280;58760;48.716;8.962;2023-05-03T05:27:16;97263.06;;;8.22;88.09
71105;BME280;58760;48.716;8.962;2023-05-03T05:29:42;97268.38;;;8.32;88.03
71105;BME280;58760;48.716;8.962;2023-05-03T05:32:07;97260.00;;;8.36;87.19
71105;BME280;58760;48.716;8.962;2023-05-03T05:34:33;97265.72;;;8.42;86.96
71105;BME280;58760;48.716;8.962;2023-05-03T05:36:59;97258.59;;;8.52;86.66
71105;BME280;58760;48.716;8.962;2023-05-03T05:39:24;97260.41;;;8.51;86.89
71105;BME280;58760;48.716;8.962;2023-05-03T05:41:50;97262.75;;;8.54;86.55
71105;BME280;58760;48.716;8.962;2023-05-03T05:44:15;97261.06;;;8.63;86.13
71105;BME280;58760;48.716;8.962;2023-05-03T05:46:40;97262.56;;;8.75;85.95
71105;BME280;58760;48.716;8.962;2023-05-03T05:49:06;97258.66;;;8.79;85.55
71105;BME280;58760;48.716;8.962;2023-05-03T05:51:31;97256.84;;;8.79;85.57
71105;BME280;58760;48.716;8.962;2023-05-03T05:53:57;97255.72;;;8.82;86.22
71105;BME280;58760;48.716;8.962;2023-05-03T05:56:22;97252.16;;;9.01;86.33
71105;BME280;58760;48.716;8.962;2023-05-03T05:58:48;97246.94;;;9.18;84.96
71105;BME280;58760;48.716;8.962;2023-05-03T06:01:13;97247.72;;;9.28;84.48
71105;BME280;58760;48.716;8.962;2023-05-03T06:03:39;97249.09;;;9.32;85.69
71105;BME280;58760;48.716;8.962;2023-05-03T06:06:04;97252.78;;;9.49;84.91
71105;BME280;58760;48.716;8.962;2023-05-03T06:08:29;97243.41;;;9.55;84.95
71105;BME280;58760;48.716;8.962;2023-05-03T06:10:55;97244.31;;;9.63;82.86
71105;BME280;58760;48.716;8.962;2023-05-03T06:13:21;97248.88;;;9.71;83.04
71105;BME280;58760;48.716;8.962;2023-05-03T06:15:47;97247.00;;;9.81;82.38
71105;BME280;58760;48.716;8.962;2023-05-03T06:18:12;97244.34;;;9.81;82.05
71105;BME280;58760;48.716;8.962;2023-05-03T06:20:38;97247.13;;;9.79;82.68
71105;BME280;58760;48.716;8.962;2023-05-03T06:23:03;97238.97;;;10.26;82.09
71105;BME280;58760;48.716;8.962;2023-05-03T06:25:29;97241.78;;;10.24;81.54
71105;BME280;58760;48.716;8.962;2023-05-03T06:27:54;97244.66;;;10.13;81.79
71105;BME280;58760;48.716;8.962;2023-05-03T06:30:19;97242.06;;;10.39;80.61
71105;BME280;58760;48.716;8.962;2023-05-03T06:32:46;97244.84;;;10.55;79.83
71105;BME280;58760;48.716;8.962;2023-05-03T06:35:11;97250.38;;;10.62;79.31
71105;BME280;58760;48.716;8.962;2023-05-03T06:37:38;97254.06;;;10.69;79.54
71105;BME280;58760;48.716;8.962;2023-05-03T06:40:03;97261.03;;;10.70;80.14
71105;BME280;58760;48.716;8.962;2023-05-03T06:42:30;97257.28;;;10.80;79.14
71105;BME280;58760;48.716;8.962;2023-05-03T06:44:56;97252.47;;;10.76;79.52
71105;BME280;58760;48.716;8.962;2023-05-03T06:47:21;97260.47;;;10.84;78.76
71105;BME280;58760;48.716;8.962;2023-05-03T06:49:47;97262.13;;;10.85;79.30
71105;BME280;58760;48.716;8.962;2023-05-03T06:52:12;97255.91;;;10.76;79.40
71105;BME280;58760;48.716;8.962;2023-05-03T06:54:38;97253.97;;;10.78;79.94
71105;BME280;58760;48.716;8.962;2023-05-03T06:57:04;97257.25;;;10.98;79.97
71105;BME280;58760;48.716;8.962;2023-05-03T06:59:30;97250.97;;;11.07;79.28
71105;BME280;58760;48.716;8.962;2023-05-03T07:01:55;97248.25;;;11.25;76.71
71105;BME280;58760;48.716;8.962;2023-05-03T07:04:20;97245.94;;;11.30;76.83
71105;BME280;58760;48.716;8.962;2023-05-03T07:06:46;97247.16;;;11.43;76.27
71105;BME280;58760;48.716;8.962;2023-05-03T07:09:11;97242.81;;;11.42;75.75
71105;BME280;58760;48.716;8.962;2023-05-03T07:11:37;97243.00;;;11.83;75.21
71105;BME280;58760;48.716;8.962;2023-05-03T07:14:04;97236.16;;;11.72;74.64
71105;BME280;58760;48.716;8.962;2023-05-03T07:16:29;97239.66;;;11.73;74.99
71105;BME280;58760;48.716;8.962;2023-05-03T07:18:55;97240.91;;;11.69;75.06
71105;BME280;58760;48.716;8.962;2023-05-03T07:21:20;97243.84;;;11.99;73.02
71105;BME280;58760;48.716;8.962;2023-05-03T07:23:46;97235.50;;;11.78;73.31
71105;BME280;58760;48.716;8.962;2023-05-03T07:26:11;97234.59;;;11.62;74.50
71105;BME280;58760;48.716;8.962;2023-05-03T07:28:36;97227.72;;;12.01;75.08
71105;BME280;58760;48.716;8.962;2023-05-03T07:31:02;97226.06;;;12.24;73.52
71105;BME280;58760;48.716;8.962;2023-05-03T07:33:29;97227.41;;;12.28;72.88
71105;BME280;58760;48.716;8.962;2023-05-03T07:35:54;97229.22;;;12.36;73.58
71105;BME280;58760;48.716;8.962;2023-05-03T07:38:19;97214.94;;;12.45;71.79
71105;BME280;58760;48.716;8.962;2023-05-03T07:40:45;97220.91;;;12.63;71.48
71105;BME280;58760;48.716;8.962;2023-05-03T07:43:10;97220.41;;;12.59;70.97
71105;BME280;58760;48.716;8.962;2023-05-03T07:45:36;97217.75;;;12.68;71.52
71105;BME280;58760;48.716;8.962;2023-05-03T07:48:01;97211.69;;;12.82;72.13
71105;BME280;58760;48.716;8.962;2023-05-03T07:50:28;97218.00;;;12.89;72.71
71105;BME280;58760;48.716;8.962;2023-05-03T07:52:54;97219.97;;;13.03;69.80
71105;BME280;58760;48.716;8.962;2023-05-03T07:55:20;97219.44;;;13.24;71.31
71105;BME280;58760;48.716;8.962;2023-05-03T07:57:46;97208.75;;;13.24;69.23
71105;BME280;58760;48.716;8.962;2023-05-03T08:00:12;97216.09;;;13.30;68.67
71105;BME280;58760;48.716;8.962;2023-05-03T08:02:38;97215.63;;;13.18;69.03
71105;BME280;58760;48.716;8.962;2023-05-03T08:05:04;97205.47;;;13.22;69.11
71105;BME280;58760;48.716;8.962;2023-05-03T08:07:30;97209.94;;;13.21;70.31
71105;BME280;58760;48.716;8.962;2023-05-03T08:09:56;97209.19;;;12.96;69.02
71105;BME280;58760;48.716;8.962;2023-05-03T08:12:25;97205.38;;;12.83;70.63
71105;BME280;58760;48.716;8.962;2023-05-03T08:14:51;97202.06;;;12.81;71.53
71105;BME280;58760;48.716;8.962;2023-05-03T08:17:17;97204.72;;;12.81;70.44
71105;BME280;58760;48.716;8.962;2023-05-03T08:19:43;97204.28;;;13.24;70.39
71105;BME280;58760;48.716;8.962;2023-05-03T08:22:08;97210.13;;;13.58;68.80
71105;BME280;58760;48.716;8.962;2023-05-03T08:24:36;97205.38;;;13.46;68.97
71105;BME280;58760;48.716;8.962;2023-05-03T08:27:02;97206.13;;;13.54;69.62
71105;BME280;58760;48.716;8.962;2023-05-03T08:29:27;97207.19;;;13.76;69.10
71105;BME280;58760;48.716;8.962;2023-05-03T08:31:53;97214.59;;;13.89;66.46
71105;BME280;58760;48.716;8.962;2023-05-03T08:34:18;97208.16;;;14.06;66.13
71105;BME280;58760;48.716;8.962;2023-05-03T08:36:43;97204.03;;;14.18;67.80
71105;BME280;58760;48.716;8.962;2023-05-03T08:39:09;97204.97;;;13.88;65.33
71105;BME280;58760;48.716;8.962;2023-05-03T08:41:35;97200.63;;;13.87;66.56
71105;BME280;58760;48.716;8.962;2023-05-03T08:44:05;97203.00;;;13.82;65.64
71105;BME280;58760;48.716;8.962;2023-05-03T08:46:32;97201.25;;;14.11;65.16
71105;BME280;58760;48.716;8.962;2023-05-03T08:49:01;97210.47;;;14.09;64.89
71105;BME280;58760;48.716;8.962;2023-05-03T08:51:26;97211.78;;;14.13;64.60
71105;BME280;58760;48.716;8.962;2023-05-03T08:53:52;97208.00;;;14.07;65.51
71105;BME280;58760;48.716;8.962;2023-05-03T08:56:33;97216.75;;;14.16;66.52
71105;BME280;58760;48.716;8.962;2023-05-03T08:59:04;97208.97;;;14.29;66.11
71105;BME280;58760;48.716;8.962;2023-05-03T09:01:32;97213.84;;;14.26;67.21
71105;BME280;58760;48.716;8.962;2023-05-03T09:03:58;97218.44;;;14.17;67.12
71105;BME280;58760;48.716;8.962;2023-05-03T09:06:24;97221.91;;;14.18;66.80
71105;BME280;58760;48.716;8.962;2023-05-03T09:08:53;97214.69;;;14.26;67.66
71105;BME280;58760;48.716;8.962;2023-05-03T09:13:48;97218.78;;;13.91;68.37
71105;BME280;58760;48.716;8.962;2023-05-03T09:16:23;97217.25;;;13.89;67.34
71105;BME280;58760;48.716;8.962;2023-05-03T09:18:59;97215.91;;;13.93;66.62
71105;BME280;58760;48.716;8.962;2023-05-03T09:21:25;97216.75;;;13.93;66.89
71105;BME280;58760;48.716;8.962;2023-05-03T09:23:50;97210.41;;;13.94;67.61
71105;BME280;58760;48.716;8.962;2023-05-03T09:26:28;97210.19;;;14.04;67.15
71105;BME280;58760;48.716;8.962;2023-05-03T09:28:54;97201.38;;;13.95;67.55
71105;BME280;58760;48.716;8.962;2023-05-03T09:31:21;97208.63;;;13.87;68.25
71105;BME280;58760;48.716;8.962;2023-05-03T09:33:46;97200.16;;;14.06;68.24
71105;BME280;58760;48.716;8.962;2023-05-03T09:36:12;97202.44;;;14.40;66.19
71105;BME280;58760;48.716;8.962;2023-05-03T09:38:37;97198.09;;;14.53;65.27
71105;BME280;58760;48.716;8.962;2023-05-03T09:41:02;97198.88;;;14.77;63.44
71105;BME280;58760;48.716;8.962;2023-05-03T09:43:31;97193.16;;;14.80;63.07
71105;BME280;58760;48.716;8.962;2023-05-03T09:46:11;97199.66;;;15.00;61.88
71105;BME280;58760;48.716;8.962;2023-05-03T09:48:37;97196.41;;;15.19;62.12
71105;BME280;58760;48.716;8.962;2023-05-03T09:51:04;97194.66;;;15.55;60.26
71105;BME280;58760;48.716;8.962;2023-05-03T09:53:30;97197.63;;;15.82;60.06
71105;BME280;58760;48.716;8.962;2023-05-03T09:55:56;97192.91;;;15.84;57.83
71105;BME280;58760;48.716;8.962;2023-05-03T09:58:23;97200.13;;;15.83;59.33
71105;BME280;58760;48.716;8.962;2023-05-03T10:00:50;97205.38;;;15.91;57.31
71105;BME280;58760;48.716;8.962;2023-05-03T10:03:23;97200.56;;;15.87;55.92
71105;BME280;58760;48.716;8.962;2023-05-03T10:05:52;97197.28;;;16.06;56.04
71105;BME280;58760;48.716;8.962;2023-05-03T10:08:27;97196.13;;;15.94;57.95
71105;BME280;58760;48.716;8.962;2023-05-03T10:10:57;97191.28;;;16.04;57.76
71105;BME280;58760;48.716;8.962;2023-05-03T10:13:23;97197.63;;;16.45;55.70
71105;BME280;58760;48.716;8.962;2023-05-03T10:15:55;97181.56;;;16.45;55.83
71105;BME280;58760;48.716;8.962;2023-05-03T10:18:24;97182.91;;;16.77;55.46
71105;BME280;58760;48.716;8.962;2023-05-03T10:20:55;97181.84;;;17.06;54.67
71105;BME280;58760;48.716;8.962;2023-05-03T10:23:22;97179.81;;;17.14;53.63
71105;BME280;58760;48.716;8.962;2023-05-03T10:28:32;97180.44;;;17.10;54.39
71105;BME280;58760;48.716;8.962;2023-05-03T10:30:57;97178.47;;;17.32;57.53
71105;BME280;58760;48.716;8.962;2023-05-03T10:33:33;97184.53;;;17.06;54.69
71105;BME280;58760;48.716;8.962;2023-05-03T10:36:06;97176.84;;;17.37;52.58
71105;BME280;58760;48.716;8.962;2023-05-03T10:38:31;97174.88;;;17.18;53.67
71105;BME280;58760;48.716;8.962;2023-05-03T10:40:58;97176.53;;;16.85;54.51
71105;BME280;58760;48.716;8.962;2023-05-03T10:46:04;97166.03;;;17.24;53.36
71105;BME280;58760;48.716;8.962;2023-05-03T10:48:31;97171.53;;;17.50;51.96
71105;BME280;58760;48.716;8.962;2023-05-03T10:51:29;97163.41;;;17.37;52.85
71105;BME280;58760;48.716;8.962;2023-05-03T10:53:57;97163.34;;;17.58;51.88
71105;BME280;58760;48.716;8.962;2023-05-03T10:56:23;97156.31;;;17.57;49.70
71105;BME280;58760;48.716;8.962;2023-05-03T10:58:49;97161.06;;;17.55;51.46
71105;BME280;58760;48.716;8.962;2023-05-03T11:01:17;97159.50;;;17.40;52.31
71105;BME280;58760;48.716;8.962;2023-05-03T11:04:01;97164.38;;;17.16;53.23
71105;BME280;58760;48.716;8.962;2023-05-03T11:06:38;97155.59;;;17.01;52.61
71105;BME280;58760;48.716;8.962;2023-05-03T11:09:06;97150.13;;;17.16;53.15
71105;BME280;58760;48.716;8.962;2023-05-03T11:11:34;97146.09;;;17.40;52.41
71105;BME280;58760;48.716;8.962;2023-05-03T11:14:00;97138.31;;;17.51;52.27
71105;BME280;58760;48.716;8.962;2023-05-03T11:16:26;97137.38;;;17.65;51.79
71105;BME280;58760;48.716;8.962;2023-05-03T11:18:52;97136.41;;;18.06;50.65
71105;BME280;58760;48.716;8.962;2023-05-03T11:21:18;97122.78;;;18.01;49.13
71105;BME280;58760;48.716;8.962;2023-05-03T11:23:44;97130.97;;;17.80;49.97
71105;BME280;58760;48.716;8.962;2023-05-03T11:26:09;97116.91;;;17.64;50.63
71105;BME280;58760;48.716;8.962;2023-05-03T11:28:39;97124.38;;;17.82;50.40
71105;BME280;58760;48.716;8.962;2023-05-03T11:31:05;97121.72;;;17.95;47.92
71105;BME280;58760;48.716;8.962;2023-05-03T11:33:32;97120.25;;;17.86;48.70
71105;BME280;58760;48.716;8.962;2023-05-03T11:36:03;97117.41;;;18.66;48.47
71105;BME280;58760;48.716;8.962;2023-05-03T11:38:33;97113.66;;;19.51;47.39
71105;BME280;58760;48.716;8.962;2023-05-03T11:40:59;97109.09;;;19.90;47.35
71105;BME280;58760;48.716;8.962;2023-05-03T11:43:25;97108.66;;;20.49;43.82
71105;BME280;58760;48.716;8.962;2023-05-03T11:45:53;97111.34;;;20.24;42.13
71105;BME280;58760;48.716;8.962;2023-05-03T11:48:20;97108.69;;;19.48;45.42
71105;BME280;58760;48.716;8.962;2023-05-03T11:53:13;97112.03;;;19.37;43.47
71105;BME280;58760;48.716;8.962;2023-05-03T11:55:44;97100.47;;;19.30;43.31
71105;BME280;58760;48.716;8.962;2023-05-03T11:58:16;97097.91;;;20.17;40.83
71105;BME280;58760;48.716;8.962;2023-05-03T12:00:45;97098.25;;;20.03;41.00
71105;BME280;58760;48.716;8.962;2023-05-03T12:03:16;97099.94;;;20.71;41.07
71105;BME280;58760;48.716;8.962;2023-05-03T12:05:41;97100.75;;;19.98;43.31
71105;BME280;58760;48.716;8.962;2023-05-03T12:08:09;97100.72;;;19.73;41.19
71105;BME280;58760;48.716;8.962;2023-05-03T12:10:35;97097.28;;;19.53;42.83
71105;BME280;58760;48.716;8.962;2023-05-03T12:13:00;97111.00;;;19.31;42.71
71105;BME280;58760;48.716;8.962;2023-05-03T12:15:27;97100.16;;;19.07;43.61
71105;BME280;58760;48.716;8.962;2023-05-03T12:17:58;97104.19;;;19.29;43.78
71105;BME280;58760;48.716;8.962;2023-05-03T12:20:25;97109.47;;;20.24;41.55
71105;BME280;58760;48.716;8.962;2023-05-03T12:22:59;97109.47;;;21.35;40.52
71105;BME280;58760;48.716;8.962;2023-05-03T12:25:26;97100.25;;;22.67;40.00
71105;BME280;58760;48.716;8.962;2023-05-03T12:27:53;97091.50;;;23.34;34.91
71105;BME280;58760;48.716;8.962;2023-05-03T12:30:18;97090.75;;;23.39;34.37
71105;BME280;58760;48.716;8.962;2023-05-03T12:32:44;97086.25;;;22.58;35.49
71105;BME280;58760;48.716;8.962;2023-05-03T12:35:09;97083.09;;;22.84;35.38
71105;BME280;58760;48.716;8.962;2023-05-03T12:37:35;97079.59;;;23.75;34.87
71105;BME280;58760;48.716;8.962;2023-05-03T12:40:01;97072.97;;;24.28;31.75
71105;BME280;58760;48.716;8.962;2023-05-03T12:42:27;97068.00;;;23.63;32.89
71105;BME280;58760;48.716;8.962;2023-05-03T12:44:56;97068.63;;;22.67;34.93
71105;BME280;58760;48.716;8.962;2023-05-03T12:47:21;97061.25;;;22.10;36.99
71105;BME280;58760;48.716;8.962;2023-05-03T12:49:47;97067.66;;;24.05;33.87
71105;BME280;58760;48.716;8.962;2023-05-03T12:52:12;97055.56;;;25.56;30.08
71105;BME280;58760;48.716;8.962;2023-05-03T12:54:38;97048.09;;;24.69;30.96
71105;BME280;58760;48.716;8.962;2023-05-03T12:57:03;97061.69;;;24.69;31.34
71105;BME280;58760;48.716;8.962;2023-05-03T12:59:28;97054.59;;;24.02;32.41
71105;BME280;58760;48.716;8.962;2023-05-03T13:01:55;97057.00;;;23.18;33.07
71105;BME280;58760;48.716;8.962;2023-05-03T13:04:21;97057.00;;;23.30;34.16
71105;BME280;58760;48.716;8.962;2023-05-03T13:06:46;97040.34;;;24.78;31.77
71105;BME280;58760;48.716;8.962;2023-05-03T13:09:14;97038.53;;;25.22;30.11
71105;BME280;58760;48.716;8.962;2023-05-03T13:11:41;97034.06;;;25.81;30.75
71105;BME280;58760;48.716;8.962;2023-05-03T13:14:07;97039.09;;;26.94;27.48
71105;BME280;58760;48.716;8.962;2023-05-03T13:16:32;97044.59;;;27.05;27.19
71105;BME280;58760;48.716;8.962;2023-05-03T13:18:59;97038.06;;;24.86;30.57